Terminal Aerodrome Forecast
Issued by NWS

Current Version | Previous Version | Graphics & Text | Print | Product List | Glossary On
Versions: 1 2 3 4 5 6 7 8 9 10 11 12 13 14 15 16 17 18 19 20
714
FTUS41 KILN 231506 AAA
TAFLCK
TAF AMD
KLCK 231506Z 2315/2412 15012G18KT P6SM BKN200
     FM231900 13012G20KT P6SM VCSH OVC050
     FM232300 12010KT P6SM -SHRA OVC035=

USA.gov is the U.S. government's official web portal to all federal, state and local government web resources and services.